sensor_id;sensor_type;location;lat;lon;timestamp;temperature;humidity
24744;DHT22;12844;52.110;5.548;2024-03-08T00:00:14;18.60;55.90
24744;DHT22;12844;52.110;5.548;2024-03-08T00:02:41;18.60;55.90
24744;DHT22;12844;52.110;5.548;2024-03-08T00:05:08;18.60;55.90
24744;DHT22;12844;52.110;5.548;2024-03-08T00:07:37;18.50;55.90
24744;DHT22;12844;52.110;5.548;2024-03-08T00:10:08;18.50;55.90
24744;DHT22;12844;52.110;5.548;2024-03-08T00:12:55;18.50;56.50
24744;DHT22;12844;52.110;5.548;2024-03-08T00:15:20;18.50;55.90
24744;DHT22;12844;52.110;5.548;2024-03-08T00:17:48;18.50;55.90
24744;DHT22;12844;52.110;5.548;2024-03-08T00:20:15;18.40;55.90
24744;DHT22;12844;52.110;5.548;2024-03-08T00:22:43;18.40;55.80
24744;DHT22;12844;52.110;5.548;2024-03-08T00:25:09;18.40;55.90
24744;DHT22;12844;52.110;5.548;2024-03-08T00:27:35;18.40;55.80
24744;DHT22;12844;52.110;5.548;2024-03-08T00:30:02;18.40;55.80
24744;DHT22;12844;52.110;5.548;2024-03-08T00:32:27;18.40;55.80
24744;DHT22;12844;52.110;5.548;2024-03-08T00:34:56;18.40;55.80
24744;DHT22;12844;52.110;5.548;2024-03-08T00:37:22;18.40;55.80
24744;DHT22;12844;52.110;5.548;2024-03-08T00:39:48;18.40;55.80
24744;DHT22;12844;52.110;5.548;2024-03-08T00:42:18;18.40;55.70
24744;DHT22;12844;52.110;5.548;2024-03-08T00:44:44;18.40;55.70
24744;DHT22;12844;52.110;5.548;2024-03-08T00:47:10;18.40;55.70
24744;DHT22;12844;52.110;5.548;2024-03-08T00:49:36;18.40;55.70
24744;DHT22;12844;52.110;5.548;2024-03-08T00:52:05;18.40;55.60
24744;DHT22;12844;52.110;5.548;2024-03-08T00:54:34;18.40;55.60
24744;DHT22;12844;52.110;5.548;2024-03-08T00:57:03;18.40;55.60
24744;DHT22;12844;52.110;5.548;2024-03-08T00:59:29;18.40;55.60
24744;DHT22;12844;52.110;5.548;2024-03-08T01:02:01;18.30;55.50
24744;DHT22;12844;52.110;5.548;2024-03-08T01:04:27;18.30;55.50
24744;DHT22;12844;52.110;5.548;2024-03-08T01:06:58;18.30;55.60
24744;DHT22;12844;52.110;5.548;2024-03-08T01:09:24;18.30;55.60
24744;DHT22;12844;52.110;5.548;2024-03-08T01:11:50;18.30;55.50
24744;DHT22;12844;52.110;5.548;2024-03-08T01:14:16;18.30;55.50
24744;DHT22;12844;52.110;5.548;2024-03-08T01:16:42;18.30;55.50
24744;DHT22;12844;52.110;5.548;2024-03-08T01:19:07;18.30;55.60
24744;DHT22;12844;52.110;5.548;2024-03-08T01:21:34;18.30;55.60
24744;DHT22;12844;52.110;5.548;2024-03-08T01:24:00;18.30;55.60
24744;DHT22;12844;52.110;5.548;2024-03-08T01:26:26;18.30;55.60
24744;DHT22;12844;52.110;5.548;2024-03-08T01:28:51;18.20;55.50
24744;DHT22;12844;52.110;5.548;2024-03-08T01:31:17;18.20;55.50
24744;DHT22;12844;52.110;5.548;2024-03-08T01:33:42;18.20;55.50
24744;DHT22;12844;52.110;5.548;2024-03-08T01:36:08;18.20;55.50
24744;DHT22;12844;52.110;5.548;2024-03-08T01:38:34;18.20;55.50
24744;DHT22;12844;52.110;5.548;2024-03-08T01:40:59;18.20;55.60
24744;DHT22;12844;52.110;5.548;2024-03-08T01:43:27;18.20;55.60
24744;DHT22;12844;52.110;5.548;2024-03-08T01:45:55;18.20;55.60
24744;DHT22;12844;52.110;5.548;2024-03-08T01:48:21;18.20;55.50
24744;DHT22;12844;52.110;5.548;2024-03-08T01:50:51;18.20;55.60
24744;DHT22;12844;52.110;5.548;2024-03-08T01:53:19;18.20;55.60
24744;DHT22;12844;52.110;5.548;2024-03-08T01:55:46;18.10;55.50
24744;DHT22;12844;52.110;5.548;2024-03-08T01:58:13;18.10;55.60
24744;DHT22;12844;52.110;5.548;2024-03-08T02:00:44;18.10;55.60
24744;DHT22;12844;52.110;5.548;2024-03-08T02:03:10;18.10;55.50
24744;DHT22;12844;52.110;5.548;2024-03-08T02:05:36;18.10;55.50
24744;DHT22;12844;52.110;5.548;2024-03-08T02:08:04;18.10;55.50
24744;DHT22;12844;52.110;5.548;2024-03-08T02:10:35;18.10;55.50
24744;DHT22;12844;52.110;5.548;2024-03-08T02:13:02;18.10;55.50
24744;DHT22;12844;52.110;5.548;2024-03-08T02:15:57;18.10;55.50
24744;DHT22;12844;52.110;5.548;2024-03-08T02:18:27;18.10;55.60
24744;DHT22;12844;52.110;5.548;2024-03-08T02:20:58;18.00;55.70
24744;DHT22;12844;52.110;5.548;2024-03-08T02:23:24;18.10;55.90
24744;DHT22;12844;52.110;5.548;2024-03-08T02:25:54;18.00;55.80
24744;DHT22;12844;52.110;5.548;2024-03-08T02:28:20;18.00;55.80
24744;DHT22;12844;52.110;5.548;2024-03-08T02:30:46;18.00;55.80
24744;DHT22;12844;52.110;5.548;2024-03-08T02:33:16;18.00;55.70
24744;DHT22;12844;52.110;5.548;2024-03-08T02:35:45;18.00;55.60
24744;DHT22;12844;52.110;5.548;2024-03-08T02:38:12;18.00;55.50
24744;DHT22;12844;52.110;5.548;2024-03-08T02:40:38;18.00;55.50
24744;DHT22;12844;52.110;5.548;2024-03-08T02:43:04;18.00;55.60
24744;DHT22;12844;52.110;5.548;2024-03-08T02:45:30;18.00;55.60
24744;DHT22;12844;52.110;5.548;2024-03-08T02:47:56;18.00;55.80
24744;DHT22;12844;52.110;5.548;2024-03-08T02:50:22;18.00;55.70
24744;DHT22;12844;52.110;5.548;2024-03-08T02:52:48;18.00;55.70
24744;DHT22;12844;52.110;5.548;2024-03-08T02:55:14;18.00;55.70
24744;DHT22;12844;52.110;5.548;2024-03-08T02:57:43;17.90;55.70
24744;DHT22;12844;52.110;5.548;2024-03-08T03:00:09;17.90;56.40
24744;DHT22;12844;52.110;5.548;2024-03-08T03:02:36;17.90;55.80
24744;DHT22;12844;52.110;5.548;2024-03-08T03:05:03;18.00;55.80
24744;DHT22;12844;52.110;5.548;2024-03-08T03:07:32;17.90;55.70
24744;DHT22;12844;52.110;5.548;2024-03-08T03:09:59;18.00;55.80
24744;DHT22;12844;52.110;5.548;2024-03-08T03:12:26;17.90;55.70
24744;DHT22;12844;52.110;5.548;2024-03-08T03:14:52;17.90;55.70
24744;DHT22;12844;52.110;5.548;2024-03-08T03:17:17;17.90;55.80
24744;DHT22;12844;52.110;5.548;2024-03-08T03:19:43;17.90;55.70
24744;DHT22;12844;52.110;5.548;2024-03-08T03:22:09;17.90;55.70
24744;DHT22;12844;52.110;5.548;2024-03-08T03:24:36;17.90;55.60
24744;DHT22;12844;52.110;5.548;2024-03-08T03:27:04;17.90;55.70
24744;DHT22;12844;52.110;5.548;2024-03-08T03:29:37;17.90;55.60
24744;DHT22;12844;52.110;5.548;2024-03-08T03:32:03;17.80;55.60
24744;DHT22;12844;52.110;5.548;2024-03-08T03:34:29;17.80;55.60
24744;DHT22;12844;52.110;5.548;2024-03-08T03:36:55;17.80;55.40
24744;DHT22;12844;52.110;5.548;2024-03-08T03:39:22;17.80;55.50
24744;DHT22;12844;52.110;5.548;2024-03-08T03:41:48;17.80;55.30
24744;DHT22;12844;52.110;5.548;2024-03-08T03:44:17;17.80;55.30
24744;DHT22;12844;52.110;5.548;2024-03-08T03:46:43;17.80;55.40
24744;DHT22;12844;52.110;5.548;2024-03-08T03:49:12;17.70;55.30
24744;DHT22;12844;52.110;5.548;2024-03-08T03:51:38;17.70;55.20
24744;DHT22;12844;52.110;5.548;2024-03-08T03:54:04;17.70;55.20
24744;DHT22;12844;52.110;5.548;2024-03-08T03:56:30;17.70;55.20
24744;DHT22;12844;52.110;5.548;2024-03-08T03:58:56;17.70;55.30
24744;DHT22;12844;52.110;5.548;2024-03-08T04:01:22;17.70;55.10
24744;DHT22;12844;52.110;5.548;2024-03-08T04:03:47;17.70;55.00
24744;DHT22;12844;52.110;5.548;2024-03-08T04:06:13;17.70;55.00
24744;DHT22;12844;52.110;5.548;2024-03-08T04:08:39;17.70;55.10
24744;DHT22;12844;52.110;5.548;2024-03-08T04:11:05;17.70;55.00
24744;DHT22;12844;52.110;5.548;2024-03-08T04:13:31;17.60;55.00
24744;DHT22;12844;52.110;5.548;2024-03-08T04:15:56;17.60;55.00
24744;DHT22;12844;52.110;5.548;2024-03-08T04:18:22;17.60;54.90
24744;DHT22;12844;52.110;5.548;2024-03-08T04:20:47;17.60;54.70
24744;DHT22;12844;52.110;5.548;2024-03-08T04:23:13;17.60;55.00
24744;DHT22;12844;52.110;5.548;2024-03-08T04:25:38;17.60;54.90
24744;DHT22;12844;52.110;5.548;2024-03-08T04:28:04;17.60;55.00
24744;DHT22;12844;52.110;5.548;2024-03-08T04:30:30;17.60;54.90
24744;DHT22;12844;52.110;5.548;2024-03-08T04:32:55;17.60;54.90
24744;DHT22;12844;52.110;5.548;2024-03-08T04:35:21;17.50;54.90
24744;DHT22;12844;52.110;5.548;2024-03-08T04:37:47;17.50;54.90
24744;DHT22;12844;52.110;5.548;2024-03-08T04:40:12;17.50;54.80
24744;DHT22;12844;52.110;5.548;2024-03-08T04:42:39;17.60;54.80
24744;DHT22;12844;52.110;5.548;2024-03-08T04:45:05;17.50;54.80
24744;DHT22;12844;52.110;5.548;2024-03-08T04:47:33;17.50;54.80
24744;DHT22;12844;52.110;5.548;2024-03-08T04:49:59;17.50;54.60
24744;DHT22;12844;52.110;5.548;2024-03-08T04:52:25;17.50;54.60
24744;DHT22;12844;52.110;5.548;2024-03-08T04:54:51;17.50;54.70
24744;DHT22;12844;52.110;5.548;2024-03-08T04:57:16;17.50;54.70
24744;DHT22;12844;52.110;5.548;2024-03-08T04:59:43;17.50;54.70
24744;DHT22;12844;52.110;5.548;2024-03-08T05:02:09;17.50;54.60
24744;DHT22;12844;52.110;5.548;2024-03-08T05:04:34;17.50;54.50
24744;DHT22;12844;52.110;5.548;2024-03-08T05:07:00;17.50;54.50
24744;DHT22;12844;52.110;5.548;2024-03-08T05:09:29;17.50;54.50
24744;DHT22;12844;52.110;5.548;2024-03-08T05:11:57;17.50;54.50
24744;DHT22;12844;52.110;5.548;2024-03-08T05:14:25;17.50;55.10
24744;DHT22;12844;52.110;5.548;2024-03-08T05:16:51;17.50;54.40
24744;DHT22;12844;52.110;5.548;2024-03-08T05:19:17;17.50;54.50
24744;DHT22;12844;52.110;5.548;2024-03-08T05:21:47;17.40;54.40
24744;DHT22;12844;52.110;5.548;2024-03-08T05:24:13;17.40;54.40
24744;DHT22;12844;52.110;5.548;2024-03-08T05:26:41;17.50;54.50
24744;DHT22;12844;52.110;5.548;2024-03-08T05:29:07;17.40;54.50
24744;DHT22;12844;52.110;5.548;2024-03-08T05:31:51;17.40;54.40
24744;DHT22;12844;52.110;5.548;2024-03-08T05:34:19;17.50;54.40
24744;DHT22;12844;52.110;5.548;2024-03-08T05:36:46;17.40;54.40
24744;DHT22;12844;52.110;5.548;2024-03-08T05:39:17;17.40;54.40
24744;DHT22;12844;52.110;5.548;2024-03-08T05:41:43;17.40;54.40
24744;DHT22;12844;52.110;5.548;2024-03-08T05:44:10;17.40;54.40
24744;DHT22;12844;52.110;5.548;2024-03-08T05:46:36;17.40;54.30
24744;DHT22;12844;52.110;5.548;2024-03-08T05:49:08;17.40;54.30
24744;DHT22;12844;52.110;5.548;2024-03-08T05:51:36;17.40;54.20
24744;DHT22;12844;52.110;5.548;2024-03-08T05:54:03;17.40;54.20
24744;DHT22;12844;52.110;5.548;2024-03-08T05:56:31;17.40;54.30
24744;DHT22;12844;52.110;5.548;2024-03-08T05:58:56;17.40;54.80
24744;DHT22;12844;52.110;5.548;2024-03-08T06:01:24;17.30;54.20
24744;DHT22;12844;52.110;5.548;2024-03-08T06:03:49;17.40;54.20
24744;DHT22;12844;52.110;5.548;2024-03-08T06:06:15;17.30;54.10
24744;DHT22;12844;52.110;5.548;2024-03-08T06:08:41;17.30;54.20
24744;DHT22;12844;52.110;5.548;2024-03-08T06:11:09;17.40;54.20
24744;DHT22;12844;52.110;5.548;2024-03-08T06:13:35;17.40;54.20
24744;DHT22;12844;52.110;5.548;2024-03-08T06:16:01;17.40;54.20
24744;DHT22;12844;52.110;5.548;2024-03-08T06:18:30;17.30;54.30
24744;DHT22;12844;52.110;5.548;2024-03-08T06:20:56;17.30;54.20
24744;DHT22;12844;52.110;5.548;2024-03-08T06:23:22;17.30;54.20
24744;DHT22;12844;52.110;5.548;2024-03-08T06:25:47;17.30;54.20
24744;DHT22;12844;52.110;5.548;2024-03-08T06:28:13;17.30;54.90
24744;DHT22;12844;52.110;5.548;2024-03-08T06:30:40;17.30;54.20
24744;DHT22;12844;52.110;5.548;2024-03-08T06:33:05;17.30;54.20
24744;DHT22;12844;52.110;5.548;2024-03-08T06:35:31;17.30;54.10
24744;DHT22;12844;52.110;5.548;2024-03-08T06:38:00;17.30;54.20
24744;DHT22;12844;52.110;5.548;2024-03-08T06:40:25;17.30;54.30
24744;DHT22;12844;52.110;5.548;2024-03-08T06:42:51;17.30;54.20
24744;DHT22;12844;52.110;5.548;2024-03-08T06:45:17;17.30;54.20
24744;DHT22;12844;52.110;5.548;2024-03-08T06:47:46;17.30;54.20
24744;DHT22;12844;52.110;5.548;2024-03-08T06:50:12;17.30;54.30
24744;DHT22;12844;52.110;5.548;2024-03-08T06:52:38;17.30;54.30
24744;DHT22;12844;52.110;5.548;2024-03-08T06:55:04;17.30;54.30
24744;DHT22;12844;52.110;5.548;2024-03-08T06:57:31;17.30;54.30
24744;DHT22;12844;52.110;5.548;2024-03-08T06:59:56;17.30;54.30
24744;DHT22;12844;52.110;5.548;2024-03-08T07:02:25;17.30;54.50
24744;DHT22;12844;52.110;5.548;2024-03-08T07:04:51;17.20;54.30
24744;DHT22;12844;52.110;5.548;2024-03-08T07:07:18;17.20;54.30
24744;DHT22;12844;52.110;5.548;2024-03-08T07:09:46;17.30;54.40
24744;DHT22;12844;52.110;5.548;2024-03-08T07:12:12;17.30;54.40
24744;DHT22;12844;52.110;5.548;2024-03-08T07:14:39;17.30;54.30
24744;DHT22;12844;52.110;5.548;2024-03-08T07:17:11;17.20;54.20
24744;DHT22;12844;52.110;5.548;2024-03-08T07:19:37;17.30;54.30
24744;DHT22;12844;52.110;5.548;2024-03-08T07:22:04;17.20;55.00
24744;DHT22;12844;52.110;5.548;2024-03-08T07:24:30;17.20;54.20
24744;DHT22;12844;52.110;5.548;2024-03-08T07:27:25;17.20;54.30
24744;DHT22;12844;52.110;5.548;2024-03-08T07:29:50;17.30;54.50
24744;DHT22;12844;52.110;5.548;2024-03-08T07:32:16;17.30;54.80
24744;DHT22;12844;52.110;5.548;2024-03-08T07:34:48;17.30;54.80
24744;DHT22;12844;52.110;5.548;2024-03-08T07:37:16;17.30;54.50
24744;DHT22;12844;52.110;5.548;2024-03-08T07:39:42;17.40;54.60
24744;DHT22;12844;52.110;5.548;2024-03-08T07:42:08;17.50;54.60
24744;DHT22;12844;52.110;5.548;2024-03-08T07:44:35;17.60;54.80
24744;DHT22;12844;52.110;5.548;2024-03-08T07:47:00;17.70;54.80
24744;DHT22;12844;52.110;5.548;2024-03-08T07:49:26;17.90;55.00
24744;DHT22;12844;52.110;5.548;2024-03-08T07:51:52;18.00;55.60
24744;DHT22;12844;52.110;5.548;2024-03-08T07:54:17;18.10;54.90
24744;DHT22;12844;52.110;5.548;2024-03-08T07:56:43;18.20;54.90
24744;DHT22;12844;52.110;5.548;2024-03-08T07:59:09;18.30;54.80
24744;DHT22;12844;52.110;5.548;2024-03-08T08:01:36;18.40;54.90
24744;DHT22;12844;52.110;5.548;2024-03-08T08:04:02;18.40;54.90
24744;DHT22;12844;52.110;5.548;2024-03-08T08:06:28;18.40;55.00
24744;DHT22;12844;52.110;5.548;2024-03-08T08:08:57;18.50;55.00
24744;DHT22;12844;52.110;5.548;2024-03-08T08:11:22;18.50;54.70
24744;DHT22;12844;52.110;5.548;2024-03-08T08:13:48;18.60;54.80
24744;DHT22;12844;52.110;5.548;2024-03-08T08:16:14;18.70;54.80
24744;DHT22;12844;52.110;5.548;2024-03-08T08:18:39;18.70;54.80
24744;DHT22;12844;52.110;5.548;2024-03-08T08:21:06;18.70;55.40
24744;DHT22;12844;52.110;5.548;2024-03-08T08:23:32;18.70;54.50
24744;DHT22;12844;52.110;5.548;2024-03-08T08:25:58;18.70;54.50
24744;DHT22;12844;52.110;5.548;2024-03-08T08:28:24;18.70;54.50
24744;DHT22;12844;52.110;5.548;2024-03-08T08:30:50;18.70;54.50
24744;DHT22;12844;52.110;5.548;2024-03-08T08:33:16;18.70;54.50
24744;DHT22;12844;52.110;5.548;2024-03-08T08:35:42;18.70;54.80
24744;DHT22;12844;52.110;5.548;2024-03-08T08:38:08;18.70;54.90
24744;DHT22;12844;52.110;5.548;2024-03-08T08:40:34;18.70;54.80
24744;DHT22;12844;52.110;5.548;2024-03-08T08:43:01;18.80;54.80
24744;DHT22;12844;52.110;5.548;2024-03-08T08:45:30;18.70;54.60
24744;DHT22;12844;52.110;5.548;2024-03-08T08:47:56;18.70;54.80
24744;DHT22;12844;52.110;5.548;2024-03-08T08:50:22;18.70;54.60
24744;DHT22;12844;52.110;5.548;2024-03-08T08:52:51;18.70;54.50
24744;DHT22;12844;52.110;5.548;2024-03-08T08:55:16;18.70;54.60
24744;DHT22;12844;52.110;5.548;2024-03-08T08:57:46;18.70;54.60
24744;DHT22;12844;52.110;5.548;2024-03-08T09:00:13;18.70;54.80
24744;DHT22;12844;52.110;5.548;2024-03-08T09:02:44;18.70;54.60
24744;DHT22;12844;52.110;5.548;2024-03-08T09:05:09;18.70;54.80
24744;DHT22;12844;52.110;5.548;2024-03-08T09:07:35;18.70;54.60
24744;DHT22;12844;52.110;5.548;2024-03-08T09:10:01;18.70;54.70
24744;DHT22;12844;52.110;5.548;2024-03-08T09:12:26;18.70;54.70
24744;DHT22;12844;52.110;5.548;2024-03-08T09:14:52;18.70;54.50
24744;DHT22;12844;52.110;5.548;2024-03-08T09:17:18;18.80;54.50
24744;DHT22;12844;52.110;5.548;2024-03-08T09:19:46;18.80;54.50
24744;DHT22;12844;52.110;5.548;2024-03-08T09:22:13;18.80;54.60
24744;DHT22;12844;52.110;5.548;2024-03-08T09:24:39;18.80;54.50
24744;DHT22;12844;52.110;5.548;2024-03-08T09:27:05;18.90;54.40
24744;DHT22;12844;52.110;5.548;2024-03-08T09:29:30;18.90;54.30
24744;DHT22;12844;52.110;5.548;2024-03-08T09:31:56;18.90;54.30
24744;DHT22;12844;52.110;5.548;2024-03-08T09:34:22;18.90;54.30
24744;DHT22;12844;52.110;5.548;2024-03-08T09:36:48;18.90;54.40
24744;DHT22;12844;52.110;5.548;2024-03-08T09:39:13;18.90;54.40
24744;DHT22;12844;52.110;5.548;2024-03-08T09:41:45;18.90;54.30
24744;DHT22;12844;52.110;5.548;2024-03-08T09:44:14;19.00;54.30
24744;DHT22;12844;52.110;5.548;2024-03-08T09:46:40;19.00;54.30
24744;DHT22;12844;52.110;5.548;2024-03-08T09:49:07;19.00;54.30
24744;DHT22;12844;52.110;5.548;2024-03-08T09:51:34;19.00;54.30
24744;DHT22;12844;52.110;5.548;2024-03-08T09:54:02;19.00;54.30
24744;DHT22;12844;52.110;5.548;2024-03-08T09:56:32;19.00;54.30
24744;DHT22;12844;52.110;5.548;2024-03-08T09:58:58;19.10;54.50
24744;DHT22;12844;52.110;5.548;2024-03-08T10:01:42;19.10;54.60
24744;DHT22;12844;52.110;5.548;2024-03-08T10:04:09;19.10;55.10
24744;DHT22;12844;52.110;5.548;2024-03-08T10:06:35;19.10;54.40
24744;DHT22;12844;52.110;5.548;2024-03-08T10:09:02;19.20;54.50
24744;DHT22;12844;52.110;5.548;2024-03-08T10:11:27;19.20;54.50
24744;DHT22;12844;52.110;5.548;2024-03-08T10:13:54;19.30;54.60
24744;DHT22;12844;52.110;5.548;2024-03-08T10:16:20;19.40;54.60
24744;DHT22;12844;52.110;5.548;2024-03-08T10:18:46;19.40;54.50
24744;DHT22;12844;52.110;5.548;2024-03-08T10:21:12;19.50;54.90
24744;DHT22;12844;52.110;5.548;2024-03-08T10:23:39;19.50;54.10
24744;DHT22;12844;52.110;5.548;2024-03-08T10:26:15;19.60;54.60
24744;DHT22;12844;52.110;5.548;2024-03-08T10:28:42;19.70;53.80
24744;DHT22;12844;52.110;5.548;2024-03-08T10:31:08;19.70;53.70
24744;DHT22;12844;52.110;5.548;2024-03-08T10:33:35;19.80;53.50
24744;DHT22;12844;52.110;5.548;2024-03-08T10:36:00;19.90;53.50
24744;DHT22;12844;52.110;5.548;2024-03-08T10:38:26;20.00;53.30
24744;DHT22;12844;52.110;5.548;2024-03-08T10:40:54;20.20;52.80
24744;DHT22;12844;52.110;5.548;2024-03-08T10:43:24;20.40;52.90
24744;DHT22;12844;52.110;5.548;2024-03-08T10:45:55;20.70;51.70
24744;DHT22;12844;52.110;5.548;2024-03-08T10:48:31;21.00;51.30
24744;DHT22;12844;52.110;5.548;2024-03-08T10:51:02;21.30;50.80
24744;DHT22;12844;52.110;5.548;2024-03-08T10:53:28;21.60;50.20
24744;DHT22;12844;52.110;5.548;2024-03-08T10:55:56;21.90;49.60
24744;DHT22;12844;52.110;5.548;2024-03-08T10:58:24;22.10;49.10
24744;DHT22;12844;52.110;5.548;2024-03-08T11:00:53;22.40;48.80
24744;DHT22;12844;52.110;5.548;2024-03-08T11:03:44;22.60;48.20
24744;DHT22;12844;52.110;5.548;2024-03-08T11:09:32;23.20;47.00
24744;DHT22;12844;52.110;5.548;2024-03-08T11:12:19;23.40;46.80
24744;DHT22;12844;52.110;5.548;2024-03-08T11:14:49;23.60;46.10
24744;DHT22;12844;52.110;5.548;2024-03-08T11:17:44;23.70;45.70
24744;DHT22;12844;52.110;5.548;2024-03-08T11:22:41;23.80;45.30
24744;DHT22;12844;52.110;5.548;2024-03-08T11:33:27;24.20;44.20
24744;DHT22;12844;52.110;5.548;2024-03-08T11:38:29;24.40;44.10
24744;DHT22;12844;52.110;5.548;2024-03-08T11:40:57;24.40;44.10
24744;DHT22;12844;52.110;5.548;2024-03-08T11:43:22;24.60;43.90
24744;DHT22;12844;52.110;5.548;2024-03-08T11:45:48;24.70;44.50
24744;DHT22;12844;52.110;5.548;2024-03-08T11:48:13;24.70;43.50
24744;DHT22;12844;52.110;5.548;2024-03-08T11:50:40;24.90;43.20
24744;DHT22;12844;52.110;5.548;2024-03-08T11:53:05;25.00;42.90
24744;DHT22;12844;52.110;5.548;2024-03-08T11:55:32;25.10;42.80
24744;DHT22;12844;52.110;5.548;2024-03-08T11:58:07;25.20;42.60
24744;DHT22;12844;52.110;5.548;2024-03-08T12:00:36;25.40;42.80
24744;DHT22;12844;52.110;5.548;2024-03-08T12:03:07;25.60;41.90
24744;DHT22;12844;52.110;5.548;2024-03-08T12:05:35;25.70;41.90
24744;DHT22;12844;52.110;5.548;2024-03-08T12:08:02;25.80;41.70
24744;DHT22;12844;52.110;5.548;2024-03-08T12:10:28;25.90;41.60
24744;DHT22;12844;52.110;5.548;2024-03-08T12:12:56;26.00;41.30
24744;DHT22;12844;52.110;5.548;2024-03-08T12:15:25;26.00;41.10
24744;DHT22;12844;52.110;5.548;2024-03-08T12:17:53;26.00;41.10
24744;DHT22;12844;52.110;5.548;2024-03-08T12:20:29;26.00;41.30
24744;DHT22;12844;52.110;5.548;2024-03-08T12:22:55;25.90;41.30
24744;DHT22;12844;52.110;5.548;2024-03-08T12:25:30;25.80;41.90
24744;DHT22;12844;52.110;5.548;2024-03-08T12:27:57;25.80;41.40
24744;DHT22;12844;52.110;5.548;2024-03-08T12:30:27;25.70;41.40
24744;DHT22;12844;52.110;5.548;2024-03-08T12:33:00;25.60;41.60
24744;DHT22;12844;52.110;5.548;2024-03-08T12:35:27;25.20;41.70
24744;DHT22;12844;52.110;5.548;2024-03-08T12:37:57;24.90;42.20
24744;DHT22;12844;52.110;5.548;2024-03-08T12:40:30;24.50;43.00
24744;DHT22;12844;52.110;5.548;2024-03-08T12:43:00;24.10;43.50
24744;DHT22;12844;52.110;5.548;2024-03-08T12:45:27;23.70;44.20
24744;DHT22;12844;52.110;5.548;2024-03-08T12:47:54;23.30;44.80
24744;DHT22;12844;52.110;5.548;2024-03-08T12:50:21;23.00;45.50
24744;DHT22;12844;52.110;5.548;2024-03-08T12:52:47;22.70;46.00
24744;DHT22;12844;52.110;5.548;2024-03-08T12:55:14;22.40;46.30
24744;DHT22;12844;52.110;5.548;2024-03-08T12:57:39;22.10;46.90
24744;DHT22;12844;52.110;5.548;2024-03-08T13:00:05;21.70;47.40
24744;DHT22;12844;52.110;5.548;2024-03-08T13:02:31;21.50;47.60
24744;DHT22;12844;52.110;5.548;2024-03-08T13:04:58;21.30;48.30
24744;DHT22;12844;52.110;5.548;2024-03-08T13:07:24;21.10;48.70
24744;DHT22;12844;52.110;5.548;2024-03-08T13:09:54;20.90;49.10
24744;DHT22;12844;52.110;5.548;2024-03-08T13:12:23;20.80;49.50
24744;DHT22;12844;52.110;5.548;2024-03-08T13:14:49;20.60;49.80
24744;DHT22;12844;52.110;5.548;2024-03-08T13:17:15;20.50;50.00
24744;DHT22;12844;52.110;5.548;2024-03-08T13:19:41;20.40;50.40
24744;DHT22;12844;52.110;5.548;2024-03-08T13:22:08;20.30;50.40
24744;DHT22;12844;52.110;5.548;2024-03-08T13:24:39;20.20;50.60
24744;DHT22;12844;52.110;5.548;2024-03-08T13:27:06;20.10;50.70
24744;DHT22;12844;52.110;5.548;2024-03-08T13:29:42;20.00;50.80
24744;DHT22;12844;52.110;5.548;2024-03-08T13:32:08;20.00;51.10
24744;DHT22;12844;52.110;5.548;2024-03-08T13:34:40;19.90;51.10
24744;DHT22;12844;52.110;5.548;2024-03-08T13:37:06;19.80;51.20
24744;DHT22;12844;52.110;5.548;2024-03-08T13:39:31;19.80;51.20
24744;DHT22;12844;52.110;5.548;2024-03-08T13:42:10;19.80;52.20
24744;DHT22;12844;52.110;5.548;2024-03-08T13:44:46;19.70;51.60
24744;DHT22;12844;52.110;5.548;2024-03-08T13:47:18;19.70;51.30
24744;DHT22;12844;52.110;5.548;2024-03-08T13:49:44;19.70;51.50
24744;DHT22;12844;52.110;5.548;2024-03-08T13:52:10;19.70;51.50
24744;DHT22;12844;52.110;5.548;2024-03-08T13:54:38;19.60;51.50
24744;DHT22;12844;52.110;5.548;2024-03-08T13:57:04;19.60;51.60
24744;DHT22;12844;52.110;5.548;2024-03-08T13:59:30;19.60;51.70
24744;DHT22;12844;52.110;5.548;2024-03-08T14:01:59;19.60;51.70
24744;DHT22;12844;52.110;5.548;2024-03-08T14:04:25;19.60;51.70
24744;DHT22;12844;52.110;5.548;2024-03-08T14:06:52;19.50;51.80
24744;DHT22;12844;52.110;5.548;2024-03-08T14:09:25;19.50;51.70
24744;DHT22;12844;52.110;5.548;2024-03-08T14:11:55;19.50;51.70
24744;DHT22;12844;52.110;5.548;2024-03-08T14:14:21;19.50;51.80
24744;DHT22;12844;52.110;5.548;2024-03-08T14:16:51;19.50;51.70
24744;DHT22;12844;52.110;5.548;2024-03-08T14:19:23;19.60;51.60
24744;DHT22;12844;52.110;5.548;2024-03-08T14:21:48;19.60;51.60
24744;DHT22;12844;52.110;5.548;2024-03-08T14:24:17;19.60;51.60
24744;DHT22;12844;52.110;5.548;2024-03-08T14:26:44;19.60;51.50
24744;DHT22;12844;52.110;5.548;2024-03-08T14:29:10;19.60;51.70
24744;DHT22;12844;52.110;5.548;2024-03-08T14:31:36;19.50;51.70
24744;DHT22;12844;52.110;5.548;2024-03-08T14:34:02;19.50;51.70
24744;DHT22;12844;52.110;5.548;2024-03-08T14:36:29;19.50;51.70
24744;DHT22;12844;52.110;5.548;2024-03-08T14:38:55;19.50;51.70
24744;DHT22;12844;52.110;5.548;2024-03-08T14:41:20;19.50;51.70
24744;DHT22;12844;52.110;5.548;2024-03-08T14:43:47;19.50;51.80
24744;DHT22;12844;52.110;5.548;2024-03-08T14:46:14;19.50;51.90
24744;DHT22;12844;52.110;5.548;2024-03-08T14:48:52;19.50;51.90
24744;DHT22;12844;52.110;5.548;2024-03-08T14:51:21;19.50;51.90
24744;DHT22;12844;52.110;5.548;2024-03-08T14:53:54;19.40;51.90
24744;DHT22;12844;52.110;5.548;2024-03-08T14:56:20;19.40;51.80
24744;DHT22;12844;52.110;5.548;2024-03-08T14:58:46;19.40;52.00
24744;DHT22;12844;52.110;5.548;2024-03-08T15:01:15;19.40;51.90
24744;DHT22;12844;52.110;5.548;2024-03-08T15:03:41;19.40;51.90
24744;DHT22;12844;52.110;5.548;2024-03-08T15:06:08;19.40;52.00
24744;DHT22;12844;52.110;5.548;2024-03-08T15:08:39;19.40;52.00
24744;DHT22;12844;52.110;5.548;2024-03-08T15:11:08;19.40;51.90
24744;DHT22;12844;52.110;5.548;2024-03-08T15:13:34;19.40;51.90
24744;DHT22;12844;52.110;5.548;2024-03-08T15:16:08;19.40;51.90
24744;DHT22;12844;52.110;5.548;2024-03-08T15:18:34;19.40;51.90
24744;DHT22;12844;52.110;5.548;2024-03-08T15:21:05;19.40;51.90
24744;DHT22;12844;52.110;5.548;2024-03-08T15:23:37;19.40;51.90
24744;DHT22;12844;52.110;5.548;2024-03-08T15:26:03;19.40;52.50
24744;DHT22;12844;52.110;5.548;2024-03-08T15:28:32;19.40;51.80
24744;DHT22;12844;52.110;5.548;2024-03-08T15:31:03;19.40;52.00
24744;DHT22;12844;52.110;5.548;2024-03-08T15:33:36;19.40;52.80
24744;DHT22;12844;52.110;5.548;2024-03-08T15:36:14;19.40;52.30
24744;DHT22;12844;52.110;5.548;2024-03-08T15:38:42;19.30;52.40
24744;DHT22;12844;52.110;5.548;2024-03-08T15:41:12;19.30;52.50
24744;DHT22;12844;52.110;5.548;2024-03-08T15:43:39;19.30;53.40
24744;DHT22;12844;52.110;5.548;2024-03-08T15:46:05;19.30;52.80
24744;DHT22;12844;52.110;5.548;2024-03-08T15:48:35;19.30;52.90